sensor_id;sensor_type;location;lat;lon;timestamp;P1;durP1;ratioP1;P2;durP2;ratioP2
11535;SDS011;5824;49.336;8.652;2022-11-02T00:01:05;7.70;;;3.13;;
11535;SDS011;5824;49.336;8.652;2022-11-02T00:03:32;8.13;;;3.30;;
11535;SDS011;5824;49.336;8.652;2022-11-02T00:05:58;6.23;;;3.10;;
11535;SDS011;5824;49.336;8.652;2022-11-02T00:08:23;7.00;;;3.27;;
11535;SDS011;5824;49.336;8.652;2022-11-02T00:10:49;10.07;;;3.70;;
11535;SDS011;5824;49.336;8.652;2022-11-02T00:13:14;5.47;;;3.47;;
11535;SDS011;5824;49.336;8.652;2022-11-02T00:15:40;4.47;;;3.33;;
11535;SDS011;5824;49.336;8.652;2022-11-02T00:18:07;6.20;;;3.70;;
11535;SDS011;5824;49.336;8.652;2022-11-02T00:20:35;9.13;;;3.13;;
11535;SDS011;5824;49.336;8.652;2022-11-02T00:23:03;8.87;;;3.23;;
11535;SDS011;5824;49.336;8.652;2022-11-02T00:25:31;8.80;;;3.70;;
11535;SDS011;5824;49.336;8.652;2022-11-02T00:27:57;7.10;;;3.67;;
11535;SDS011;5824;49.336;8.652;2022-11-02T00:30:23;13.83;;;3.67;;
11535;SDS011;5824;49.336;8.652;2022-11-02T00:32:49;7.77;;;3.87;;
11535;SDS011;5824;49.336;8.652;2022-11-02T00:35:15;7.03;;;3.53;;
11535;SDS011;5824;49.336;8.652;2022-11-02T00:37:40;7.53;;;3.50;;
11535;SDS011;5824;49.336;8.652;2022-11-02T00:40:06;6.60;;;3.53;;
11535;SDS011;5824;49.336;8.652;2022-11-02T00:42:32;11.63;;;3.60;;
11535;SDS011;5824;49.336;8.652;2022-11-02T00:44:57;9.53;;;3.43;;
11535;SDS011;5824;49.336;8.652;2022-11-02T00:47:23;5.10;;;3.10;;
11535;SDS011;5824;49.336;8.652;2022-11-02T00:49:48;6.07;;;3.47;;
11535;SDS011;5824;49.336;8.652;2022-11-02T00:52:14;10.23;;;3.30;;
11535;SDS011;5824;49.336;8.652;2022-11-02T00:54:40;9.50;;;3.17;;
11535;SDS011;5824;49.336;8.652;2022-11-02T00:57:05;4.20;;;2.83;;
11535;SDS011;5824;49.336;8.652;2022-11-02T00:59:31;6.70;;;3.30;;
11535;SDS011;5824;49.336;8.652;2022-11-02T01:01:56;5.67;;;3.10;;
11535;SDS011;5824;49.336;8.652;2022-11-02T01:04:22;7.03;;;3.10;;
11535;SDS011;5824;49.336;8.652;2022-11-02T01:06:47;8.57;;;3.50;;
11535;SDS011;5824;49.336;8.652;2022-11-02T01:09:13;7.23;;;3.00;;
11535;SDS011;5824;49.336;8.652;2022-11-02T01:11:40;6.87;;;3.20;;
11535;SDS011;5824;49.336;8.652;2022-11-02T01:14:06;10.03;;;3.50;;
11535;SDS011;5824;49.336;8.652;2022-11-02T01:16:31;5.67;;;3.57;;
11535;SDS011;5824;49.336;8.652;2022-11-02T01:18:57;6.23;;;3.20;;
11535;SDS011;5824;49.336;8.652;2022-11-02T01:21:23;8.27;;;2.90;;
11535;SDS011;5824;49.336;8.652;2022-11-02T01:23:49;7.57;;;2.87;;
11535;SDS011;5824;49.336;8.652;2022-11-02T01:26:15;9.47;;;3.90;;
11535;SDS011;5824;49.336;8.652;2022-11-02T01:28:40;9.03;;;3.93;;
11535;SDS011;5824;49.336;8.652;2022-11-02T01:31:06;8.00;;;3.33;;
11535;SDS011;5824;49.336;8.652;2022-11-02T01:33:33;9.67;;;3.87;;
11535;SDS011;5824;49.336;8.652;2022-11-02T01:36:01;5.87;;;3.23;;
11535;SDS011;5824;49.336;8.652;2022-11-02T01:38:28;7.00;;;3.80;;
11535;SDS011;5824;49.336;8.652;2022-11-02T01:40:55;6.50;;;3.30;;
11535;SDS011;5824;49.336;8.652;2022-11-02T01:45:51;6.13;;;3.00;;
11535;SDS011;5824;49.336;8.652;2022-11-02T01:51:31;8.23;;;3.37;;
11535;SDS011;5824;49.336;8.652;2022-11-02T01:54:02;4.80;;;3.17;;
11535;SDS011;5824;49.336;8.652;2022-11-02T01:56:32;4.07;;;2.63;;
11535;SDS011;5824;49.336;8.652;2022-11-02T01:59:01;6.23;;;3.43;;
11535;SDS011;5824;49.336;8.652;2022-11-02T02:01:30;5.50;;;3.00;;
11535;SDS011;5824;49.336;8.652;2022-11-02T02:03:56;8.93;;;3.00;;
11535;SDS011;5824;49.336;8.652;2022-11-02T02:06:22;8.50;;;3.27;;
11535;SDS011;5824;49.336;8.652;2022-11-02T02:08:50;12.93;;;3.70;;
11535;SDS011;5824;49.336;8.652;2022-11-02T02:11:30;5.40;;;3.20;;
11535;SDS011;5824;49.336;8.652;2022-11-02T02:13:58;7.83;;;3.10;;
11535;SDS011;5824;49.336;8.652;2022-11-02T02:16:39;3.97;;;3.00;;
11535;SDS011;5824;49.336;8.652;2022-11-02T02:22:31;8.63;;;2.90;;
11535;SDS011;5824;49.336;8.652;2022-11-02T02:28:19;4.70;;;3.17;;
11535;SDS011;5824;49.336;8.652;2022-11-02T02:30:56;4.97;;;2.50;;
11535;SDS011;5824;49.336;8.652;2022-11-02T02:36:02;7.10;;;2.87;;
11535;SDS011;5824;49.336;8.652;2022-11-02T02:38:35;4.17;;;3.27;;
11535;SDS011;5824;49.336;8.652;2022-11-02T02:44:04;5.10;;;3.00;;
11535;SDS011;5824;49.336;8.652;2022-11-02T02:46:56;5.73;;;3.07;;
11535;SDS011;5824;49.336;8.652;2022-11-02T02:49:26;9.37;;;3.07;;
11535;SDS011;5824;49.336;8.652;2022-11-02T02:51:55;16.90;;;3.70;;
11535;SDS011;5824;49.336;8.652;2022-11-02T02:54:23;8.20;;;2.90;;
11535;SDS011;5824;49.336;8.652;2022-11-02T02:56:55;7.70;;;3.13;;
11535;SDS011;5824;49.336;8.652;2022-11-02T02:59:26;5.50;;;2.83;;
11535;SDS011;5824;49.336;8.652;2022-11-02T03:01:55;5.57;;;3.10;;
11535;SDS011;5824;49.336;8.652;2022-11-02T03:04:22;7.63;;;2.80;;
11535;SDS011;5824;49.336;8.652;2022-11-02T03:06:48;6.97;;;3.30;;
11535;SDS011;5824;49.336;8.652;2022-11-02T03:11:58;5.17;;;2.77;;
11535;SDS011;5824;49.336;8.652;2022-11-02T03:22:54;4.87;;;2.70;;
11535;SDS011;5824;49.336;8.652;2022-11-02T03:25:28;6.07;;;2.70;;
11535;SDS011;5824;49.336;8.652;2022-11-02T03:28:22;10.70;;;3.37;;
11535;SDS011;5824;49.336;8.652;2022-11-02T03:30:54;5.73;;;2.73;;
11535;SDS011;5824;49.336;8.652;2022-11-02T03:33:35;5.53;;;3.10;;
11535;SDS011;5824;49.336;8.652;2022-11-02T03:36:07;6.60;;;3.57;;
11535;SDS011;5824;49.336;8.652;2022-11-02T03:38:43;4.83;;;2.90;;
11535;SDS011;5824;49.336;8.652;2022-11-02T03:41:13;7.57;;;2.97;;
11535;SDS011;5824;49.336;8.652;2022-11-02T03:43:40;6.50;;;2.80;;
11535;SDS011;5824;49.336;8.652;2022-11-02T03:46:07;4.93;;;2.97;;
11535;SDS011;5824;49.336;8.652;2022-11-02T03:48:37;4.27;;;2.70;;
11535;SDS011;5824;49.336;8.652;2022-11-02T03:51:07;7.30;;;2.90;;
11535;SDS011;5824;49.336;8.652;2022-11-02T03:53:45;3.30;;;2.80;;
11535;SDS011;5824;49.336;8.652;2022-11-02T03:56:19;5.87;;;2.93;;
11535;SDS011;5824;49.336;8.652;2022-11-02T03:58:49;8.00;;;3.17;;
11535;SDS011;5824;49.336;8.652;2022-11-02T04:01:15;9.53;;;3.47;;
11535;SDS011;5824;49.336;8.652;2022-11-02T04:03:43;6.47;;;3.50;;
11535;SDS011;5824;49.336;8.652;2022-11-02T04:06:10;8.50;;;3.60;;
11535;SDS011;5824;49.336;8.652;2022-11-02T04:08:38;7.57;;;2.77;;
11535;SDS011;5824;49.336;8.652;2022-11-02T04:11:06;7.83;;;3.10;;
11535;SDS011;5824;49.336;8.652;2022-11-02T04:13:50;9.03;;;3.37;;
11535;SDS011;5824;49.336;8.652;2022-11-02T04:16:34;5.77;;;2.60;;
11535;SDS011;5824;49.336;8.652;2022-11-02T04:19:00;6.03;;;2.63;;
11535;SDS011;5824;49.336;8.652;2022-11-02T04:21:44;4.93;;;2.87;;
11535;SDS011;5824;49.336;8.652;2022-11-02T04:24:30;4.43;;;2.50;;
11535;SDS011;5824;49.336;8.652;2022-11-02T04:27:14;5.63;;;2.80;;
11535;SDS011;5824;49.336;8.652;2022-11-02T04:29:40;5.43;;;2.77;;
11535;SDS011;5824;49.336;8.652;2022-11-02T04:32:06;7.33;;;3.23;;
11535;SDS011;5824;49.336;8.652;2022-11-02T04:34:31;8.93;;;3.23;;
11535;SDS011;5824;49.336;8.652;2022-11-02T04:36:57;6.70;;;2.97;;
11535;SDS011;5824;49.336;8.652;2022-11-02T04:39:22;9.03;;;2.93;;
11535;SDS011;5824;49.336;8.652;2022-11-02T04:41:48;7.27;;;2.90;;
11535;SDS011;5824;49.336;8.652;2022-11-02T04:44:14;6.43;;;2.83;;
11535;SDS011;5824;49.336;8.652;2022-11-02T04:46:40;6.70;;;3.00;;
11535;SDS011;5824;49.336;8.652;2022-11-02T04:49:07;5.77;;;2.60;;
11535;SDS011;5824;49.336;8.652;2022-11-02T04:51:33;8.77;;;2.80;;
11535;SDS011;5824;49.336;8.652;2022-11-02T04:54:00;10.27;;;2.90;;
11535;SDS011;5824;49.336;8.652;2022-11-02T04:56:26;4.80;;;2.80;;
11535;SDS011;5824;49.336;8.652;2022-11-02T04:58:53;7.27;;;2.43;;
11535;SDS011;5824;49.336;8.652;2022-11-02T05:01:20;5.57;;;2.90;;
11535;SDS011;5824;49.336;8.652;2022-11-02T05:03:48;5.30;;;2.33;;
11535;SDS011;5824;49.336;8.652;2022-11-02T05:06:15;6.23;;;2.63;;
11535;SDS011;5824;49.336;8.652;2022-11-02T05:08:42;5.73;;;2.90;;
11535;SDS011;5824;49.336;8.652;2022-11-02T05:11:07;10.33;;;3.10;;
11535;SDS011;5824;49.336;8.652;2022-11-02T05:13:34;9.97;;;2.63;;
11535;SDS011;5824;49.336;8.652;2022-11-02T05:16:00;7.47;;;3.10;;
11535;SDS011;5824;49.336;8.652;2022-11-02T05:18:26;4.80;;;2.60;;
11535;SDS011;5824;49.336;8.652;2022-11-02T05:20:54;8.97;;;3.20;;
11535;SDS011;5824;49.336;8.652;2022-11-02T05:23:21;7.43;;;3.20;;
11535;SDS011;5824;49.336;8.652;2022-11-02T05:25:51;9.47;;;2.93;;
11535;SDS011;5824;49.336;8.652;2022-11-02T05:28:21;7.97;;;3.30;;
11535;SDS011;5824;49.336;8.652;2022-11-02T05:30:46;8.83;;;3.00;;
11535;SDS011;5824;49.336;8.652;2022-11-02T05:33:12;9.63;;;3.43;;
11535;SDS011;5824;49.336;8.652;2022-11-02T05:35:37;10.70;;;3.93;;
11535;SDS011;5824;49.336;8.652;2022-11-02T05:38:03;10.23;;;3.10;;
11535;SDS011;5824;49.336;8.652;2022-11-02T05:40:28;5.70;;;3.17;;
11535;SDS011;5824;49.336;8.652;2022-11-02T05:42:58;8.53;;;3.63;;
11535;SDS011;5824;49.336;8.652;2022-11-02T05:45:24;8.63;;;2.90;;
11535;SDS011;5824;49.336;8.652;2022-11-02T05:47:50;12.47;;;3.50;;
11535;SDS011;5824;49.336;8.652;2022-11-02T05:50:15;13.17;;;3.57;;
11535;SDS011;5824;49.336;8.652;2022-11-02T05:52:41;10.40;;;3.47;;
11535;SDS011;5824;49.336;8.652;2022-11-02T05:55:06;8.17;;;2.80;;
11535;SDS011;5824;49.336;8.652;2022-11-02T05:57:32;5.53;;;2.70;;
11535;SDS011;5824;49.336;8.652;2022-11-02T05:59:57;9.07;;;3.00;;
11535;SDS011;5824;49.336;8.652;2022-11-02T06:02:23;10.30;;;3.13;;
11535;SDS011;5824;49.336;8.652;2022-11-02T06:04:48;12.33;;;2.90;;
11535;SDS011;5824;49.336;8.652;2022-11-02T06:07:14;10.53;;;2.97;;
11535;SDS011;5824;49.336;8.652;2022-11-02T06:09:39;9.07;;;3.37;;
11535;SDS011;5824;49.336;8.652;2022-11-02T06:12:05;7.43;;;3.20;;
11535;SDS011;5824;49.336;8.652;2022-11-02T06:14:31;10.73;;;3.50;;
11535;SDS011;5824;49.336;8.652;2022-11-02T06:16:56;7.43;;;2.87;;
11535;SDS011;5824;49.336;8.652;2022-11-02T06:19:22;7.43;;;3.10;;
11535;SDS011;5824;49.336;8.652;2022-11-02T06:21:48;14.97;;;3.17;;
11535;SDS011;5824;49.336;8.652;2022-11-02T06:24:13;17.73;;;3.33;;
11535;SDS011;5824;49.336;8.652;2022-11-02T06:26:39;9.43;;;3.70;;
11535;SDS011;5824;49.336;8.652;2022-11-02T06:29:04;9.20;;;3.00;;
11535;SDS011;5824;49.336;8.652;2022-11-02T06:31:30;10.20;;;3.80;;
11535;SDS011;5824;49.336;8.652;2022-11-02T06:33:56;12.50;;;4.00;;
11535;SDS011;5824;49.336;8.652;2022-11-02T06:36:21;7.77;;;3.30;;
11535;SDS011;5824;49.336;8.652;2022-11-02T06:38:47;15.10;;;4.67;;
11535;SDS011;5824;49.336;8.652;2022-11-02T06:41:12;15.83;;;3.83;;
11535;SDS011;5824;49.336;8.652;2022-11-02T06:43:38;10.13;;;4.40;;
11535;SDS011;5824;49.336;8.652;2022-11-02T06:46:04;8.67;;;3.37;;
11535;SDS011;5824;49.336;8.652;2022-11-02T06:48:30;16.63;;;7.23;;
11535;SDS011;5824;49.336;8.652;2022-11-02T06:50:56;12.97;;;4.90;;
11535;SDS011;5824;49.336;8.652;2022-11-02T06:53:21;6.80;;;3.03;;
11535;SDS011;5824;49.336;8.652;2022-11-02T06:55:56;10.50;;;3.67;;
11535;SDS011;5824;49.336;8.652;2022-11-02T06:58:23;19.10;;;7.03;;
11535;SDS011;5824;49.336;8.652;2022-11-02T07:00:49;13.07;;;4.33;;
11535;SDS011;5824;49.336;8.652;2022-11-02T07:03:20;17.27;;;4.30;;
11535;SDS011;5824;49.336;8.652;2022-11-02T07:05:49;11.97;;;4.00;;
11535;SDS011;5824;49.336;8.652;2022-11-02T07:08:16;10.70;;;3.40;;
11535;SDS011;5824;49.336;8.652;2022-11-02T07:10:42;11.60;;;4.07;;
11535;SDS011;5824;49.336;8.652;2022-11-02T07:13:08;7.60;;;4.03;;
11535;SDS011;5824;49.336;8.652;2022-11-02T07:15:33;7.47;;;3.27;;
11535;SDS011;5824;49.336;8.652;2022-11-02T07:17:59;10.57;;;3.20;;
11535;SDS011;5824;49.336;8.652;2022-11-02T07:20:24;9.30;;;3.30;;
11535;SDS011;5824;49.336;8.652;2022-11-02T07:22:50;6.90;;;2.73;;
11535;SDS011;5824;49.336;8.652;2022-11-02T07:25:17;6.90;;;3.20;;
11535;SDS011;5824;49.336;8.652;2022-11-02T07:27:42;9.63;;;3.33;;
11535;SDS011;5824;49.336;8.652;2022-11-02T07:30:08;7.97;;;2.93;;
11535;SDS011;5824;49.336;8.652;2022-11-02T07:32:40;8.40;;;2.50;;
11535;SDS011;5824;49.336;8.652;2022-11-02T07:35:07;11.00;;;3.37;;
11535;SDS011;5824;49.336;8.652;2022-11-02T07:37:34;12.47;;;2.90;;
11535;SDS011;5824;49.336;8.652;2022-11-02T07:39:59;9.63;;;3.57;;
11535;SDS011;5824;49.336;8.652;2022-11-02T07:42:25;9.70;;;3.43;;
11535;SDS011;5824;49.336;8.652;2022-11-02T07:44:51;13.10;;;4.37;;
11535;SDS011;5824;49.336;8.652;2022-11-02T07:47:16;15.53;;;3.40;;
11535;SDS011;5824;49.336;8.652;2022-11-02T07:49:42;14.00;;;2.90;;
11535;SDS011;5824;49.336;8.652;2022-11-02T07:52:07;10.17;;;3.10;;
11535;SDS011;5824;49.336;8.652;2022-11-02T07:54:33;8.53;;;2.93;;
11535;SDS011;5824;49.336;8.652;2022-11-02T07:56:58;10.30;;;3.80;;
11535;SDS011;5824;49.336;8.652;2022-11-02T07:59:24;12.17;;;2.97;;
11535;SDS011;5824;49.336;8.652;2022-11-02T08:01:49;9.40;;;2.60;;
11535;SDS011;5824;49.336;8.652;2022-11-02T08:04:15;9.00;;;3.00;;
11535;SDS011;5824;49.336;8.652;2022-11-02T08:06:40;6.20;;;2.50;;
11535;SDS011;5824;49.336;8.652;2022-11-02T08:09:06;7.77;;;2.70;;
11535;SDS011;5824;49.336;8.652;2022-11-02T08:11:31;6.80;;;2.80;;
11535;SDS011;5824;49.336;8.652;2022-11-02T08:13:57;7.73;;;2.67;;
11535;SDS011;5824;49.336;8.652;2022-11-02T08:16:23;8.20;;;2.60;;
11535;SDS011;5824;49.336;8.652;2022-11-02T08:18:48;6.80;;;2.60;;
11535;SDS011;5824;49.336;8.652;2022-11-02T08:21:14;10.27;;;2.57;;
11535;SDS011;5824;49.336;8.652;2022-11-02T08:23:39;7.87;;;2.57;;
11535;SDS011;5824;49.336;8.652;2022-11-02T08:26:05;6.40;;;2.50;;
11535;SDS011;5824;49.336;8.652;2022-11-02T08:28:31;10.17;;;2.93;;
11535;SDS011;5824;49.336;8.652;2022-11-02T08:30:59;6.80;;;2.10;;
11535;SDS011;5824;49.336;8.652;2022-11-02T08:33:25;4.87;;;2.33;;
11535;SDS011;5824;49.336;8.652;2022-11-02T08:35:51;12.53;;;2.80;;
11535;SDS011;5824;49.336;8.652;2022-11-02T08:38:17;6.13;;;2.10;;
11535;SDS011;5824;49.336;8.652;2022-11-02T08:40:46;8.70;;;2.83;;
11535;SDS011;5824;49.336;8.652;2022-11-02T08:43:12;9.33;;;2.50;;
11535;SDS011;5824;49.336;8.652;2022-11-02T08:45:39;14.27;;;2.53;;
11535;SDS011;5824;49.336;8.652;2022-11-02T08:48:06;9.13;;;2.63;;
11535;SDS011;5824;49.336;8.652;2022-11-02T08:50:32;11.13;;;2.77;;
11535;SDS011;5824;49.336;8.652;2022-11-02T08:52:59;6.90;;;2.33;;
11535;SDS011;5824;49.336;8.652;2022-11-02T08:55:24;11.63;;;2.17;;
11535;SDS011;5824;49.336;8.652;2022-11-02T08:57:50;6.50;;;2.50;;
11535;SDS011;5824;49.336;8.652;2022-11-02T09:00:21;5.00;;;2.30;;
11535;SDS011;5824;49.336;8.652;2022-11-02T09:02:58;7.33;;;2.47;;
11535;SDS011;5824;49.336;8.652;2022-11-02T09:05:24;13.17;;;2.80;;
11535;SDS011;5824;49.336;8.652;2022-11-02T09:07:53;6.60;;;2.33;;
11535;SDS011;5824;49.336;8.652;2022-11-02T09:10:24;7.83;;;2.20;;
11535;SDS011;5824;49.336;8.652;2022-11-02T09:12:50;9.10;;;2.60;;
11535;SDS011;5824;49.336;8.652;2022-11-02T09:15:15;7.47;;;2.17;;
11535;SDS011;5824;49.336;8.652;2022-11-02T09:17:41;11.17;;;2.67;;
11535;SDS011;5824;49.336;8.652;2022-11-02T09:20:06;7.90;;;2.97;;
11535;SDS011;5824;49.336;8.652;2022-11-02T09:22:32;6.53;;;2.60;;
11535;SDS011;5824;49.336;8.652;2022-11-02T09:24:58;7.70;;;2.70;;
11535;SDS011;5824;49.336;8.652;2022-11-02T09:27:23;11.80;;;3.37;;
11535;SDS011;5824;49.336;8.652;2022-11-02T09:29:49;8.37;;;2.60;;
11535;SDS011;5824;49.336;8.652;2022-11-02T09:32:14;9.80;;;2.73;;
11535;SDS011;5824;49.336;8.652;2022-11-02T09:34:40;7.73;;;2.80;;
11535;SDS011;5824;49.336;8.652;2022-11-02T09:37:05;11.13;;;2.73;;
11535;SDS011;5824;49.336;8.652;2022-11-02T09:39:31;7.97;;;2.83;;
11535;SDS011;5824;49.336;8.652;2022-11-02T09:42:11;8.73;;;2.90;;
11535;SDS011;5824;49.336;8.652;2022-11-02T09:45:02;6.67;;;2.30;;
11535;SDS011;5824;49.336;8.652;2022-11-02T09:47:33;9.63;;;2.50;;
11535;SDS011;5824;49.336;8.652;2022-11-02T09:50:11;9.23;;;2.60;;
11535;SDS011;5824;49.336;8.652;2022-11-02T09:52:41;7.60;;;2.23;;
11535;SDS011;5824;49.336;8.652;2022-11-02T09:55:11;7.10;;;2.57;;
11535;SDS011;5824;49.336;8.652;2022-11-02T09:57:42;8.03;;;2.40;;
11535;SDS011;5824;49.336;8.652;2022-11-02T10:00:13;14.13;;;3.13;;
11535;SDS011;5824;49.336;8.652;2022-11-02T10:08:14;8.25;;;2.75;;
11535;SDS011;5824;49.336;8.652;2022-11-02T10:13:50;8.60;;;2.67;;
11535;SDS011;5824;49.336;8.652;2022-11-02T10:16:35;9.23;;;2.88;;
11535;SDS011;5824;49.336;8.652;2022-11-02T10:19:05;11.48;;;2.90;;
11535;SDS011;5824;49.336;8.652;2022-11-02T10:21:37;9.18;;;2.80;;
11535;SDS011;5824;49.336;8.652;2022-11-02T10:24:14;8.38;;;3.00;;
11535;SDS011;5824;49.336;8.652;2022-11-02T10:26:58;8.48;;;2.97;;
11535;SDS011;5824;49.336;8.652;2022-11-02T10:29:32;8.77;;;2.88;;
11535;SDS011;5824;49.336;8.652;2022-11-02T10:32:10;9.27;;;3.10;;
11535;SDS011;5824;49.336;8.652;2022-11-02T10:34:37;5.15;;;2.40;;
11535;SDS011;5824;49.336;8.652;2022-11-02T10:42:56;10.23;;;2.83;;
11535;SDS011;5824;49.336;8.652;2022-11-02T10:45:58;8.50;;;2.70;;
11535;SDS011;5824;49.336;8.652;2022-11-02T10:48:54;8.90;;;2.30;;
11535;SDS011;5824;49.336;8.652;2022-11-02T10:51:24;9.40;;;2.17;;
11535;SDS011;5824;49.336;8.652;2022-11-02T10:53:50;8.30;;;2.57;;
11535;SDS011;5824;49.336;8.652;2022-11-02T10:56:23;9.27;;;2.70;;
11535;SDS011;5824;49.336;8.652;2022-11-02T11:01:33;11.57;;;2.67;;
11535;SDS011;5824;49.336;8.652;2022-11-02T11:04:05;6.53;;;2.73;;
11535;SDS011;5824;49.336;8.652;2022-11-02T11:06:43;8.83;;;2.83;;
11535;SDS011;5824;49.336;8.652;2022-11-02T11:09:14;6.27;;;2.47;;
11535;SDS011;5824;49.336;8.652;2022-11-02T11:11:57;9.07;;;2.60;;
11535;SDS011;5824;49.336;8.652;2022-11-02T11:14:25;5.77;;;2.33;;
11535;SDS011;5824;49.336;8.652;2022-11-02T11:17:00;7.40;;;2.20;;
11535;SDS011;5824;49.336;8.652;2022-11-02T11:22:24;7.57;;;2.60;;
11535;SDS011;5824;49.336;8.652;2022-11-02T11:24:50;8.10;;;2.60;;
11535;SDS011;5824;49.336;8.652;2022-11-02T11:27:17;9.82;;;3.15;;
11535;SDS011;5824;49.336;8.652;2022-11-02T11:32:24;10.35;;;2.70;;
11535;SDS011;5824;49.336;8.652;2022-11-02T11:35:04;7.30;;;2.40;;
11535;SDS011;5824;49.336;8.652;2022-11-02T11:37:31;9.98;;;2.55;;
11535;SDS011;5824;49.336;8.652;2022-11-02T11:40:04;9.43;;;2.60;;
11535;SDS011;5824;49.336;8.652;2022-11-02T11:42:40;6.28;;;2.25;;
11535;SDS011;5824;49.336;8.652;2022-11-02T11:45:12;8.70;;;2.70;;
11535;SDS011;5824;49.336;8.652;2022-11-02T11:47:44;9.65;;;2.72;;
11535;SDS011;5824;49.336;8.652;2022-11-02T11:50:14;9.15;;;2.75;;
11535;SDS011;5824;49.336;8.652;2022-11-02T11:52:41;10.23;;;2.92;;
11535;SDS011;5824;49.336;8.652;2022-11-02T11:55:21;9.10;;;2.30;;
11535;SDS011;5824;49.336;8.652;2022-11-02T11:58:02;9.50;;;2.40;;
11535;SDS011;5824;49.336;8.652;2022-11-02T12:00:37;7.17;;;2.00;;
11535;SDS011;5824;49.336;8.652;2022-11-02T12:03:03;8.70;;;1.90;;
11535;SDS011;5824;49.336;8.652;2022-11-02T12:05:37;6.53;;;2.00;;
11535;SDS011;5824;49.336;8.652;2022-11-02T12:13:44;7.00;;;1.90;;
11535;SDS011;5824;49.336;8.652;2022-11-02T12:21:29;6.50;;;1.70;;
11535;SDS011;5824;49.336;8.652;2022-11-02T12:27:23;5.50;;;2.43;;
11535;SDS011;5824;49.336;8.652;2022-11-02T12:35:41;5.60;;;2.17;;
11535;SDS011;5824;49.336;8.652;2022-11-02T12:46:10;5.23;;;2.10;;
11535;SDS011;5824;49.336;8.652;2022-11-02T12:48:41;7.40;;;2.33;;
11535;SDS011;5824;49.336;8.652;2022-11-02T12:51:28;5.63;;;2.00;;
11535;SDS011;5824;49.336;8.652;2022-11-02T12:54:00;5.43;;;2.23;;
11535;SDS011;5824;49.336;8.652;2022-11-02T12:56:47;8.47;;;2.07;;
11535;SDS011;5824;49.336;8.652;2022-11-02T12:59:26;9.03;;;2.20;;
11535;SDS011;5824;49.336;8.652;2022-11-02T13:07:17;8.90;;;2.07;;
11535;SDS011;5824;49.336;8.652;2022-11-02T13:10:18;8.20;;;2.03;;
11535;SDS011;5824;49.336;8.652;2022-11-02T13:12:58;6.07;;;2.20;;
11535;SDS011;5824;49.336;8.652;2022-11-02T13:15:25;5.63;;;2.37;;
11535;SDS011;5824;49.336;8.652;2022-11-02T13:17:55;6.10;;;2.10;;
11535;SDS011;5824;49.336;8.652;2022-11-02T13:20:29;6.67;;;2.20;;
11535;SDS011;5824;49.336;8.652;2022-11-02T13:23:04;6.07;;;2.20;;
11535;SDS011;5824;49.336;8.652;2022-11-02T13:25:41;10.47;;;2.50;;
11535;SDS011;5824;49.336;8.652;2022-11-02T13:28:16;11.67;;;2.50;;
11535;SDS011;5824;49.336;8.652;2022-11-02T13:31:04;8.40;;;1.83;;
11535;SDS011;5824;49.336;8.652;2022-11-02T13:33:38;7.60;;;2.43;;
11535;SDS011;5824;49.336;8.652;2022-11-02T13:36:07;6.17;;;2.23;;
11535;SDS011;5824;49.336;8.652;2022-11-02T13:38:41;6.03;;;2.13;;
11535;SDS011;5824;49.336;8.652;2022-11-02T13:46:50;7.63;;;2.50;;
11535;SDS011;5824;49.336;8.652;2022-11-02T13:49:30;10.37;;;2.90;;
11535;SDS011;5824;49.336;8.652;2022-11-02T13:52:04;6.27;;;2.40;;
11535;SDS011;5824;49.336;8.652;2022-11-02T13:54:38;7.73;;;2.40;;
11535;SDS011;5824;49.336;8.652;2022-11-02T13:57:19;7.43;;;2.30;;
11535;SDS011;5824;49.336;8.652;2022-11-02T13:59:55;7.63;;;1.93;;
11535;SDS011;5824;49.336;8.652;2022-11-02T14:02:20;5.73;;;2.20;;
11535;SDS011;5824;49.336;8.652;2022-11-02T14:04:48;9.00;;;2.73;;
11535;SDS011;5824;49.336;8.652;2022-11-02T14:10:14;6.60;;;2.40;;
11535;SDS011;5824;49.336;8.652;2022-11-02T14:12:42;8.67;;;2.20;;
11535;SDS011;5824;49.336;8.652;2022-11-02T14:20:36;13.50;;;2.90;;
11535;SDS011;5824;49.336;8.652;2022-11-02T14:35:59;7.43;;;2.57;;
11535;SDS011;5824;49.336;8.652;2022-11-02T14:41:28;6.70;;;2.70;;
11535;SDS011;5824;49.336;8.652;2022-11-02T14:47:11;17.77;;;2.50;;
11535;SDS011;5824;49.336;8.652;2022-11-02T14:52:31;6.13;;;2.20;;
11535;SDS011;5824;49.336;8.652;2022-11-02T14:55:08;7.17;;;2.10;;
11535;SDS011;5824;49.336;8.652;2022-11-02T14:57:51;6.00;;;2.10;;
11535;SDS011;5824;49.336;8.652;2022-11-02T15:02:45;9.83;;;2.13;;
11535;SDS011;5824;49.336;8.652;2022-11-02T15:05:22;7.20;;;2.20;;
11535;SDS011;5824;49.336;8.652;2022-11-02T15:07:58;4.30;;;2.20;;
11535;SDS011;5824;49.336;8.652;2022-11-02T15:18:19;6.93;;;2.23;;
11535;SDS011;5824;49.336;8.652;2022-11-02T15:26:08;7.87;;;2.50;;
11535;SDS011;5824;49.336;8.652;2022-11-02T15:28:38;8.90;;;2.87;;
11535;SDS011;5824;49.336;8.652;2022-11-02T15:31:12;5.23;;;2.20;;
11535;SDS011;5824;49.336;8.652;2022-11-02T15:33:42;7.00;;;2.17;;
11535;SDS011;5824;49.336;8.652;2022-11-02T15:36:52;8.60;;;3.30;;
11535;SDS011;5824;49.336;8.652;2022-11-02T15:39:02;8.73;;;2.90;;
11535;SDS011;5824;49.336;8.652;2022-11-02T15:41:44;10.53;;;2.43;;
11535;SDS011;5824;49.336;8.652;2022-11-02T15:47:18;9.27;;;2.40;;
11535;SDS011;5824;49.336;8.652;2022-11-02T16:00:34;7.90;;;2.90;;
11535;SDS011;5824;49.336;8.652;2022-11-02T16:03:00;13.50;;;3.00;;
11535;SDS011;5824;49.336;8.652;2022-11-02T16:05:29;9.70;;;2.47;;
11535;SDS011;5824;49.336;8.652;2022-11-02T16:07:58;6.70;;;2.30;;
11535;SDS011;5824;49.336;8.652;2022-11-02T16:10:33;14.73;;;2.70;;
11535;SDS011;5824;49.336;8.652;2022-11-02T16:13:00;6.80;;;2.67;;
11535;SDS011;5824;49.336;8.652;2022-11-02T16:15:31;8.10;;;2.50;;
11535;SDS011;5824;49.336;8.652;2022-11-02T16:17:57;9.03;;;2.80;;
11535;SDS011;5824;49.336;8.652;2022-11-02T16:20:24;11.77;;;3.30;;
11535;SDS011;5824;49.336;8.652;2022-11-02T16:23:04;9.93;;;2.67;;
11535;SDS011;5824;49.336;8.652;2022-11-02T16:25:40;11.73;;;2.50;;
11535;SDS011;5824;49.336;8.652;2022-11-02T16:31:02;11.60;;;3.60;;
11535;SDS011;5824;49.336;8.652;2022-11-02T16:33:30;6.33;;;2.90;;
11535;SDS011;5824;49.336;8.652;2022-11-02T16:35:58;6.90;;;2.80;;
11535;SDS011;5824;49.336;8.652;2022-11-02T16:38:24;13.73;;;3.67;;
11535;SDS011;5824;49.336;8.652;2022-11-02T16:40:50;8.57;;;2.90;;
11535;SDS011;5824;49.336;8.652;2022-11-02T16:43:16;11.75;;;3.50;;
11535;SDS011;5824;49.336;8.652;2022-11-02T16:45:43;9.00;;;3.67;;
11535;SDS011;5824;49.336;8.652;2022-11-02T16:50:58;8.53;;;3.53;;
11535;SDS011;5824;49.336;8.652;2022-11-02T16:53:25;10.40;;;4.23;;
11535;SDS011;5824;49.336;8.652;2022-11-02T16:55:53;15.23;;;5.10;;
11535;SDS011;5824;49.336;8.652;2022-11-02T16:58:24;9.53;;;4.90;;
11535;SDS011;5824;49.336;8.652;2022-11-02T17:00:55;13.10;;;4.40;;
11535;SDS011;5824;49.336;8.652;2022-11-02T17:03:22;18.40;;;9.30;;
11535;SDS011;5824;49.336;8.652;2022-11-02T17:05:50;19.77;;;9.63;;
11535;SDS011;5824;49.336;8.652;2022-11-02T17:08:23;16.10;;;9.90;;
11535;SDS011;5824;49.336;8.652;2022-11-02T17:10:53;24.83;;;9.30;;
11535;SDS011;5824;49.336;8.652;2022-11-02T17:13:20;20.77;;;7.10;;
11535;SDS011;5824;49.336;8.652;2022-11-02T17:15:48;9.10;;;4.20;;
11535;SDS011;5824;49.336;8.652;2022-11-02T17:20:46;17.93;;;9.33;;
11535;SDS011;5824;49.336;8.652;2022-11-02T17:23:31;17.23;;;7.33;;
11535;SDS011;5824;49.336;8.652;2022-11-02T17:26:17;14.13;;;6.23;;
11535;SDS011;5824;49.336;8.652;2022-11-02T17:28:49;10.67;;;5.90;;
11535;SDS011;5824;49.336;8.652;2022-11-02T17:31:37;11.53;;;5.57;;
11535;SDS011;5824;49.336;8.652;2022-11-02T17:34:23;13.00;;;5.80;;
11535;SDS011;5824;49.336;8.652;2022-11-02T17:36:49;13.30;;;5.50;;
11535;SDS011;5824;49.336;8.652;2022-11-02T17:39:15;10.73;;;4.40;;
11535;SDS011;5824;49.336;8.652;2022-11-02T17:41:42;13.13;;;4.30;;
11535;SDS011;5824;49.336;8.652;2022-11-02T17:44:29;9.50;;;3.90;;
11535;SDS011;5824;49.336;8.652;2022-11-02T17:46:55;9.37;;;3.80;;
11535;SDS011;5824;49.336;8.652;2022-11-02T17:49:20;11.73;;;4.00;;
11535;SDS011;5824;49.336;8.652;2022-11-02T17:51:46;12.57;;;4.83;;